Time;durP1;ratioP1;P1;durP2;ratioP2;P2;SDS_P1;SDS_P2;PMS_P1;PMS_P2;Temp;Humidity;BMP_temperature;BMP_pressure;BME280_temperature;BME280_humidity;BME280_pressure;Samples;Min_cycle;Max_cycle;Signal;HPM_P1;HPM_P2
2023/01/22 00:02:06;;;;;;;20.90;16.40;;;-0.30;99.90;;;;;;4934490;29;20201;-71
2023/01/22 00:04:35;;;;;;;20.67;16.77;;;-0.30;99.90;;;;;;4932069;29;20610;-71
2023/01/22 00:07:02;;;;;;;20.13;15.88;;;-0.30;99.90;;;;;;4927340;29;20229;-72
2023/01/22 00:09:31;;;;;;;19.55;15.07;;;-0.30;99.90;;;;;;4932008;29;21954;-72
2023/01/22 00:11:58;;;;;;;21.38;16.70;;;-0.30;99.90;;;;;;4930225;29;20197;-72
2023/01/22 00:14:25;;;;;;;18.23;14.63;;;-0.20;99.90;;;;;;4932660;29;20197;-72
2023/01/22 00:16:53;;;;;;;22.83;16.85;;;-0.20;99.90;;;;;;4932425;29;20260;-72
2023/01/22 00:19:20;;;;;;;21.20;16.65;;;-0.20;99.90;;;;;;4932393;29;20609;-72
2023/01/22 00:21:46;;;;;;;19.30;15.82;;;-0.20;99.90;;;;;;4923379;29;20194;-72
2023/01/22 00:24:14;;;;;;;22.05;15.80;;;-0.10;99.90;;;;;;4930796;29;20208;-72
2023/01/22 00:26:42;;;;;;;19.75;15.23;;;-0.10;99.90;;;;;;4928236;29;20264;-72
2023/01/22 00:29:09;;;;;;;18.60;15.30;;;-0.20;99.90;;;;;;4916821;29;20206;-72
2023/01/22 00:31:37;;;;;;;19.60;16.08;;;-0.20;99.90;;;;;;4932631;29;20205;-71
2023/01/22 00:34:04;;;;;;;18.85;15.57;;;-0.20;99.90;;;;;;4932039;29;20216;-72
2023/01/22 00:36:31;;;;;;;20.25;15.65;;;-0.20;99.90;;;;;;4930021;29;20723;-72
2023/01/22 00:38:58;;;;;;;18.52;15.38;;;-0.10;99.90;;;;;;4931291;29;20261;-71
2023/01/22 00:41:25;;;;;;;20.33;16.33;;;-0.10;99.90;;;;;;4933594;29;20225;-72
2023/01/22 00:43:53;;;;;;;17.40;14.10;;;-0.10;99.90;;;;;;4926349;29;20205;-71
2023/01/22 00:46:20;;;;;;;18.95;15.30;;;-0.10;99.90;;;;;;4924950;29;20205;-72
2023/01/22 00:48:49;;;;;;;18.85;15.23;;;-0.10;99.90;;;;;;4928727;29;20295;-72
2023/01/22 00:51:16;;;;;;;19.73;15.45;;;-0.10;99.90;;;;;;4915335;29;20749;-71
2023/01/22 00:53:43;;;;;;;20.40;14.73;;;-0.10;99.90;;;;;;4921565;29;20197;-72
2023/01/22 00:56:12;;;;;;;16.30;13.55;;;-0.10;99.90;;;;;;4922538;29;20197;-71
2023/01/22 00:58:39;;;;;;;17.27;13.57;;;-0.10;99.90;;;;;;4926695;29;20626;-71
2023/01/22 01:01:07;;;;;;;18.13;14.23;;;-0.10;99.90;;;;;;4929982;29;20354;-71
2023/01/22 01:03:36;;;;;;;21.25;15.88;;;-0.10;99.90;;;;;;4932149;29;20205;-71
2023/01/22 01:06:05;;;;;;;17.80;14.02;;;-0.10;99.90;;;;;;4931357;29;21279;-71
2023/01/22 01:08:35;;;;;;;17.67;14.65;;;-0.10;99.90;;;;;;4929930;29;20292;-71
2023/01/22 01:11:04;;;;;;;16.40;13.55;;;0.00;99.90;;;;;;4926631;29;20231;-71
2023/01/22 01:13:33;;;;;;;17.38;14.20;;;0.00;99.90;;;;;;4925278;29;20296;-71
2023/01/22 01:16:01;;;;;;;16.25;13.57;;;0.00;99.90;;;;;;4932582;29;20236;-71
2023/01/22 01:18:30;;;;;;;16.83;13.73;;;0.00;99.90;;;;;;4928039;29;20697;-71
2023/01/22 01:20:59;;;;;;;18.25;14.10;;;0.00;99.90;;;;;;4930068;29;20323;-71
2023/01/22 01:23:28;;;;;;;17.10;13.68;;;0.00;99.90;;;;;;4925407;29;20292;-71
2023/01/22 01:25:55;;;;;;;17.05;12.98;;;0.00;99.90;;;;;;4919408;29;20697;-71
2023/01/22 01:28:23;;;;;;;15.95;13.77;;;0.00;99.90;;;;;;4931540;29;20673;-71
2023/01/22 01:30:50;;;;;;;18.90;13.88;;;0.00;99.90;;;;;;4932813;29;20283;-71
2023/01/22 01:33:17;;;;;;;15.88;13.13;;;0.00;99.90;;;;;;4927530;29;20223;-71
2023/01/22 01:35:46;;;;;;;16.40;13.25;;;0.10;99.90;;;;;;4926490;29;20205;-71
2023/01/22 01:38:13;;;;;;;20.40;15.18;;;0.10;99.90;;;;;;4926891;29;20646;-71
2023/01/22 01:40:42;;;;;;;14.48;12.00;;;0.10;99.90;;;;;;4935998;29;20312;-71
2023/01/22 01:43:14;;;;;;;14.13;12.13;;;0.10;99.90;;;;;;4926094;29;20654;-71
2023/01/22 01:45:41;;;;;;;16.15;13.73;;;0.10;99.90;;;;;;4929711;29;20264;-71
2023/01/22 01:48:19;;;;;;;18.27;13.93;;;0.10;99.90;;;;;;4920205;29;20197;-71
2023/01/22 01:50:53;;;;;;;18.67;14.35;;;0.10;99.90;;;;;;4922067;29;20224;-71
2023/01/22 01:53:20;;;;;;;16.15;13.68;;;0.10;99.90;;;;;;4932219;29;20201;-71
2023/01/22 01:55:48;;;;;;;18.40;13.68;;;0.10;99.90;;;;;;4934530;29;20233;-71
2023/01/22 01:58:20;;;;;;;16.27;13.48;;;0.10;99.90;;;;;;4932537;29;20231;-71
2023/01/22 02:00:50;;;;;;;16.80;13.98;;;0.10;99.90;;;;;;4935188;29;20277;-71
2023/01/22 02:03:18;;;;;;;14.27;12.38;;;0.10;99.90;;;;;;4931900;29;20611;-71
2023/01/22 02:05:45;;;;;;;18.15;14.48;;;0.10;99.90;;;;;;4934163;29;20196;-71
2023/01/22 02:08:14;;;;;;;15.82;13.40;;;0.10;99.90;;;;;;4919838;29;20292;-71
2023/01/22 02:10:42;;;;;;;17.20;13.43;;;0.10;99.90;;;;;;4929834;29;20217;-71
2023/01/22 02:13:12;;;;;;;16.55;14.13;;;0.10;99.90;;;;;;4933252;29;20202;-71
2023/01/22 02:15:40;;;;;;;17.25;14.48;;;0.10;99.90;;;;;;4949196;29;20209;-71
2023/01/22 02:18:07;;;;;;;16.02;13.32;;;0.10;99.90;;;;;;4933599;28;20581;-71
2023/01/22 02:20:36;;;;;;;15.38;12.23;;;0.10;99.90;;;;;;4921168;29;20237;-71
2023/01/22 02:23:04;;;;;;;16.38;12.98;;;0.20;99.90;;;;;;4930114;29;20205;-71
2023/01/22 02:25:32;;;;;;;18.45;14.23;;;0.20;99.90;;;;;;4918895;29;20643;-71
2023/01/22 02:27:59;;;;;;;15.18;13.57;;;0.20;99.90;;;;;;4936502;29;20209;-71
2023/01/22 02:30:27;;;;;;;14.50;13.00;;;0.20;99.90;;;;;;4935221;29;20221;-72
2023/01/22 02:32:54;;;;;;;16.15;13.50;;;0.30;99.90;;;;;;4934133;29;20197;-72
2023/01/22 02:35:20;;;;;;;16.42;13.88;;;0.30;99.90;;;;;;4930831;29;20250;-71
2023/01/22 02:37:49;;;;;;;15.55;12.88;;;0.30;99.90;;;;;;4935345;29;20237;-72
2023/01/22 02:40:16;;;;;;;17.60;14.38;;;0.30;99.90;;;;;;4935986;29;20245;-72
2023/01/22 02:42:43;;;;;;;15.80;13.88;;;0.30;99.90;;;;;;4932069;29;20207;-72
2023/01/22 02:45:11;;;;;;;17.20;14.23;;;0.30;99.90;;;;;;4934849;29;20198;-72
2023/01/22 02:47:38;;;;;;;16.52;14.30;;;0.30;99.90;;;;;;4929522;29;20729;-72
2023/01/22 02:50:06;;;;;;;16.38;13.80;;;0.30;99.90;;;;;;4927667;29;20562;-71
2023/01/22 02:52:33;;;;;;;16.55;13.20;;;0.30;99.90;;;;;;4932431;29;20756;-71
2023/01/22 02:55:03;;;;;;;17.05;13.80;;;0.30;99.90;;;;;;4927538;29;20232;-71
2023/01/22 02:57:30;;;;;;;16.60;14.32;;;0.30;99.90;;;;;;4936057;29;20621;-72
2023/01/22 02:59:58;;;;;;;16.33;13.43;;;0.30;99.90;;;;;;4935722;29;20213;-71
2023/01/22 03:02:26;;;;;;;14.65;13.02;;;0.40;99.90;;;;;;4934482;29;20207;-71
2023/01/22 03:05:02;;;;;;;16.30;13.60;;;0.40;99.90;;;;;;4931112;29;20198;-71
2023/01/22 03:07:40;;;;;;;16.80;13.90;;;0.40;99.90;;;;;;4917530;29;20198;-71
2023/01/22 03:10:11;;;;;;;15.52;13.05;;;0.40;99.90;;;;;;4922444;29;20228;-71
2023/01/22 03:23:39;;;;;;;16.30;14.15;;;0.30;99.90;;;;;;4930557;29;20205;-71
2023/01/22 03:26:08;;;;;;;15.93;13.77;;;0.30;99.90;;;;;;4926604;29;20673;-71
2023/01/22 03:28:36;;;;;;;17.05;14.02;;;0.30;99.90;;;;;;4929155;29;20205;-72
2023/01/22 03:31:03;;;;;;;16.55;14.40;;;0.30;99.90;;;;;;4935974;29;20246;-71
2023/01/22 03:33:30;;;;;;;15.82;13.80;;;0.30;99.90;;;;;;4953185;29;20208;-71
2023/01/22 03:36:00;;;;;;;17.55;14.93;;;0.30;99.90;;;;;;4918457;29;20205;-72
2023/01/22 03:38:28;;;;;;;16.80;13.80;;;0.30;99.90;;;;;;4935647;29;20307;-71
2023/01/22 03:41:02;;;;;;;16.48;13.60;;;0.30;99.90;;;;;;4933800;29;20300;-71
2023/01/22 03:43:31;;;;;;;15.15;13.27;;;0.40;99.90;;;;;;4934065;29;20205;-71
2023/01/22 03:46:06;;;;;;;16.13;12.82;;;0.40;99.90;;;;;;4922286;29;20830;-71
2023/01/22 03:48:33;;;;;;;16.02;13.48;;;0.40;99.90;;;;;;4925489;29;20201;-71
2023/01/22 03:51:07;;;;;;;16.17;13.43;;;0.40;99.90;;;;;;4934057;29;20236;-71
2023/01/22 03:53:34;;;;;;;15.65;13.30;;;0.40;99.90;;;;;;4934110;29;20613;-72
2023/01/22 03:56:03;;;;;;;14.50;13.00;;;0.40;99.90;;;;;;4933769;29;20291;-71
2023/01/22 03:58:32;;;;;;;17.35;13.98;;;0.40;99.90;;;;;;4934923;29;20267;-71
2023/01/22 04:01:01;;;;;;;15.80;12.50;;;0.40;99.90;;;;;;4934082;29;20280;-71
2023/01/22 04:03:28;;;;;;;15.27;13.32;;;0.40;99.90;;;;;;4932093;29;20260;-71
2023/01/22 04:05:58;;;;;;;16.00;13.15;;;0.40;99.90;;;;;;4934543;29;20209;-71
2023/01/22 04:08:27;;;;;;;14.68;12.50;;;0.40;99.90;;;;;;4923153;29;20202;-72
2023/01/22 04:10:54;;;;;;;14.85;13.10;;;0.40;99.90;;;;;;4929173;29;20312;-72
2023/01/22 04:13:21;;;;;;;15.73;13.07;;;0.40;99.90;;;;;;4933052;29;20197;-72
2023/01/22 04:15:50;;;;;;;15.65;13.57;;;0.40;99.90;;;;;;4932974;29;20224;-72
2023/01/22 04:18:17;;;;;;;15.20;12.32;;;0.40;99.90;;;;;;4929690;29;20313;-71
2023/01/22 04:20:44;;;;;;;16.40;13.40;;;0.40;99.90;;;;;;4928836;29;20336;-72
2023/01/22 04:23:11;;;;;;;16.00;14.02;;;0.40;99.90;;;;;;4932351;29;20201;-72
2023/01/22 04:25:38;;;;;;;16.65;14.38;;;0.40;99.90;;;;;;4932206;29;20207;-71
2023/01/22 04:28:07;;;;;;;16.80;14.70;;;0.40;99.90;;;;;;4930413;29;20205;-69
2023/01/22 04:30:34;;;;;;;15.90;14.02;;;0.50;99.90;;;;;;4932158;29;20225;-71
2023/01/22 04:33:03;;;;;;;16.38;14.43;;;0.50;99.90;;;;;;4933133;29;20424;-72
2023/01/22 04:35:30;;;;;;;18.35;15.73;;;0.50;99.90;;;;;;4933710;29;20561;-69
2023/01/22 04:37:58;;;;;;;17.33;13.88;;;0.50;99.90;;;;;;4932002;29;20248;-70
2023/01/22 04:40:25;;;;;;;16.60;14.00;;;0.50;99.90;;;;;;4928926;29;20312;-71
2023/01/22 04:42:52;;;;;;;16.75;14.40;;;0.50;99.90;;;;;;4930346;29;20189;-71
2023/01/22 04:45:20;;;;;;;18.17;15.80;;;0.50;99.90;;;;;;4930182;29;20292;-71
2023/01/22 04:47:48;;;;;;;16.65;14.32;;;0.50;99.90;;;;;;4918709;29;20203;-71
2023/01/22 04:50:18;;;;;;;16.52;13.90;;;0.50;99.90;;;;;;4922160;29;20218;-71
2023/01/22 04:52:46;;;;;;;17.35;14.63;;;0.50;99.90;;;;;;4931058;29;20201;-71
2023/01/22 04:55:13;;;;;;;15.40;13.80;;;0.50;99.90;;;;;;4937923;29;20202;-71
2023/01/22 04:57:40;;;;;;;17.95;14.63;;;0.50;99.90;;;;;;4927022;29;20563;-71
2023/01/22 05:00:10;;;;;;;19.23;16.60;;;0.50;99.90;;;;;;4931621;29;20689;-71
2023/01/22 05:02:37;;;;;;;17.42;14.85;;;0.50;99.90;;;;;;4929948;29;20210;-71
2023/01/22 05:05:05;;;;;;;18.05;15.50;;;0.50;99.90;;;;;;4931633;29;20216;-70
2023/01/22 05:07:35;;;;;;;17.02;15.05;;;0.50;99.90;;;;;;4931253;29;20202;-71
2023/01/22 05:10:01;;;;;;;17.15;14.90;;;0.50;99.90;;;;;;4930320;29;20681;-71
2023/01/22 05:12:28;;;;;;;17.73;15.20;;;0.50;99.90;;;;;;4927882;29;20237;-70
2023/01/22 05:14:56;;;;;;;19.92;15.75;;;0.60;99.90;;;;;;4923515;29;20197;-74
2023/01/22 05:17:22;;;;;;;17.83;14.95;;;0.60;99.90;;;;;;4931353;29;20209;-73
2023/01/22 05:19:49;;;;;;;18.33;15.07;;;0.60;99.90;;;;;;4932274;29;20247;-73
2023/01/22 05:22:16;;;;;;;17.52;14.80;;;0.60;99.90;;;;;;4933635;29;20228;-71
2023/01/22 05:24:45;;;;;;;17.77;14.48;;;0.80;99.90;;;;;;4929475;29;20198;-71
2023/01/22 05:27:12;;;;;;;17.38;14.52;;;0.60;99.90;;;;;;4914615;29;20237;-73
2023/01/22 05:29:39;;;;;;;15.75;13.98;;;0.60;99.90;;;;;;4921366;29;20224;-75
2023/01/22 05:32:06;;;;;;;15.75;13.18;;;0.60;99.90;;;;;;4934862;29;20695;-69
2023/01/22 05:34:33;;;;;;;19.25;16.63;;;0.90;99.90;;;;;;4936543;29;20261;-71
2023/01/22 05:37:00;;;;;;;16.75;14.68;;;1.20;99.90;;;;;;4923356;29;20206;-71
2023/01/22 05:39:27;;;;;;;17.75;15.77;;;1.20;99.90;;;;;;4937751;29;20240;-70
2023/01/22 05:41:55;;;;;;;16.88;13.73;;;1.10;99.90;;;;;;4936227;29;20212;-70
2023/01/22 05:44:22;;;;;;;16.15;13.75;;;1.10;99.90;;;;;;4936246;29;20213;-70
2023/01/22 05:46:49;;;;;;;16.10;13.65;;;1.00;99.90;;;;;;4931421;29;20280;-70
2023/01/22 05:49:16;;;;;;;16.15;14.40;;;1.00;99.90;;;;;;4927410;29;20317;-70
2023/01/22 05:51:43;;;;;;;16.58;13.50;;;0.90;99.90;;;;;;4923463;29;20201;-70
2023/01/22 05:54:10;;;;;;;16.83;13.40;;;0.90;99.90;;;;;;4928135;29;20197;-70
2023/01/22 05:56:37;;;;;;;16.90;13.68;;;0.90;99.90;;;;;;4935650;29;20291;-71
2023/01/22 05:59:06;;;;;;;16.05;14.30;;;0.90;99.90;;;;;;4920181;29;20234;-70
2023/01/22 06:01:33;;;;;;;16.80;14.48;;;0.90;99.90;;;;;;4928086;29;20202;-70
2023/01/22 06:03:59;;;;;;;19.50;15.25;;;0.90;99.90;;;;;;4935263;29;20216;-71
2023/01/22 06:06:27;;;;;;;19.25;15.18;;;0.90;99.90;;;;;;4928818;29;20209;-70
2023/01/22 06:08:54;;;;;;;18.63;15.25;;;0.90;99.90;;;;;;4934935;29;20210;-71
2023/01/22 06:11:21;;;;;;;16.98;14.60;;;0.90;99.90;;;;;;4936078;29;20232;-70
2023/01/22 06:13:48;;;;;;;16.63;14.00;;;0.90;99.90;;;;;;4935111;29;20720;-70
2023/01/22 06:16:16;;;;;;;15.40;13.80;;;0.90;99.90;;;;;;4935078;29;20197;-70
2023/01/22 06:18:43;;;;;;;17.13;14.77;;;0.90;99.90;;;;;;4935666;29;20308;-70
2023/01/22 06:21:10;;;;;;;17.33;14.70;;;0.90;99.90;;;;;;4936854;29;20233;-70
2023/01/22 06:23:37;;;;;;;17.88;14.70;;;0.90;99.90;;;;;;4931084;29;20205;-70
2023/01/22 06:26:05;;;;;;;17.80;14.90;;;0.90;99.90;;;;;;4922786;29;20206;-70
2023/01/22 06:28:32;;;;;;;16.65;14.45;;;0.90;99.90;;;;;;4929643;29;20228;-69
2023/01/22 06:31:04;;;;;;;17.25;14.60;;;0.90;99.90;;;;;;4925955;29;20198;-72
2023/01/22 06:33:34;;;;;;;16.35;14.10;;;0.80;99.90;;;;;;4928312;29;20197;-81
2023/01/22 06:36:01;;;;;;;18.30;14.70;;;0.90;99.90;;;;;;4929402;29;20602;-71
2023/01/22 06:38:28;;;;;;;15.25;13.63;;;0.90;99.90;;;;;;4936832;29;20296;-71
2023/01/22 06:40:57;;;;;;;17.55;14.85;;;0.90;99.90;;;;;;4935250;29;20232;-71
2023/01/22 06:43:25;;;;;;;17.83;15.30;;;0.90;99.90;;;;;;4935458;29;20237;-70
2023/01/22 06:45:53;;;;;;;20.00;16.73;;;0.90;99.90;;;;;;4936130;29;20205;-70
2023/01/22 06:48:20;;;;;;;17.70;15.15;;;0.90;99.90;;;;;;4936132;29;20248;-70
2023/01/22 06:50:49;;;;;;;18.70;15.20;;;0.90;99.90;;;;;;4936309;29;20283;-70
2023/01/22 06:53:16;;;;;;;17.83;15.90;;;0.90;99.90;;;;;;4936407;29;20216;-70
2023/01/22 06:55:43;;;;;;;19.58;16.02;;;0.90;99.90;;;;;;4935880;29;20217;-70
2023/01/22 06:58:10;;;;;;;17.95;15.13;;;0.90;99.90;;;;;;4925820;29;20198;-70
2023/01/22 07:00:37;;;;;;;19.30;16.50;;;0.90;99.90;;;;;;4935008;29;20237;-71
2023/01/22 07:03:06;;;;;;;20.83;15.05;;;0.90;99.90;;;;;;4931028;29;20202;-70
2023/01/22 07:05:34;;;;;;;20.45;17.00;;;0.90;99.90;;;;;;4935172;29;20213;-70
2023/01/22 07:08:02;;;;;;;18.52;15.75;;;0.90;99.90;;;;;;4935676;29;20433;-70
2023/01/22 07:10:29;;;;;;;16.52;13.27;;;0.90;99.90;;;;;;4934469;29;20260;-71
2023/01/22 07:12:58;;;;;;;18.60;14.20;;;0.90;99.90;;;;;;4927910;29;20260;-70
2023/01/22 07:15:25;;;;;;;18.40;15.05;;;0.90;99.90;;;;;;4935723;29;20220;-70
2023/01/22 07:17:53;;;;;;;21.83;16.15;;;1.00;99.90;;;;;;4927840;29;20785;-70
2023/01/22 07:20:22;;;;;;;20.38;16.38;;;1.00;99.90;;;;;;4935150;29;20237;-70
2023/01/22 07:22:49;;;;;;;17.83;14.93;;;1.00;99.90;;;;;;4935853;29;20237;-70
2023/01/22 07:25:19;;;;;;;17.60;14.60;;;1.00;99.90;;;;;;4935576;29;20228;-70
2023/01/22 07:27:46;;;;;;;18.35;15.55;;;1.00;99.90;;;;;;4934795;29;20202;-71
2023/01/22 07:30:14;;;;;;;18.90;14.75;;;1.10;99.90;;;;;;4935746;29;20351;-71
2023/01/22 07:32:41;;;;;;;17.35;14.70;;;1.10;99.90;;;;;;4931316;29;20205;-71
2023/01/22 07:35:08;;;;;;;19.52;15.75;;;1.10;99.90;;;;;;4933192;29;20654;-71
2023/01/22 07:37:36;;;;;;;18.20;15.18;;;1.10;99.90;;;;;;4934714;29;20209;-71
2023/01/22 07:40:04;;;;;;;18.40;15.50;;;1.10;99.90;;;;;;4935255;29;20642;-71
2023/01/22 07:42:33;;;;;;;17.30;15.20;;;1.10;99.90;;;;;;4935849;29;20204;-70
2023/01/22 07:45:00;;;;;;;18.65;16.08;;;1.10;99.90;;;;;;4935076;29;20213;-70
2023/01/22 07:47:27;;;;;;;20.15;15.95;;;1.20;99.90;;;;;;4933339;29;20207;-71
2023/01/22 07:49:54;;;;;;;17.50;15.32;;;1.20;99.90;;;;;;4932167;29;20286;-71
2023/01/22 07:52:21;;;;;;;17.88;14.82;;;1.20;99.90;;;;;;4926901;29;20203;-71
2023/01/22 07:54:47;;;;;;;18.98;14.45;;;1.20;99.90;;;;;;4935100;29;20208;-71
2023/01/22 07:57:15;;;;;;;18.67;14.38;;;1.20;99.90;;;;;;4930336;29;20207;-72
2023/01/22 07:59:44;;;;;;;18.77;14.80;;;1.30;99.90;;;;;;4934509;29;20716;-71
2023/01/22 08:02:12;;;;;;;18.70;14.85;;;1.30;99.90;;;;;;4925879;29;20728;-71
2023/01/22 08:04:40;;;;;;;17.95;14.60;;;1.30;99.90;;;;;;4929566;29;20228;-70
2023/01/22 08:07:09;;;;;;;18.70;15.65;;;1.30;99.90;;;;;;4930457;29;20540;-71
2023/01/22 08:09:36;;;;;;;19.27;15.68;;;1.30;99.90;;;;;;4935340;29;20224;-70
2023/01/22 08:12:04;;;;;;;19.17;16.13;;;1.30;99.90;;;;;;4934954;29;20293;-70
2023/01/22 08:14:31;;;;;;;18.98;15.18;;;1.30;99.90;;;;;;4934792;29;20559;-71
2023/01/22 08:16:59;;;;;;;17.45;14.10;;;1.30;99.90;;;;;;4933980;29;20233;-71
2023/01/22 08:19:28;;;;;;;18.58;14.95;;;1.30;99.90;;;;;;4933164;29;20237;-71
2023/01/22 08:21:55;;;;;;;18.38;14.55;;;1.30;99.90;;;;;;4934865;29;20202;-71
2023/01/22 08:24:22;;;;;;;17.85;15.02;;;1.30;99.90;;;;;;4934689;29;20217;-71
2023/01/22 08:26:49;;;;;;;18.67;15.57;;;1.40;99.90;;;;;;4933195;29;20252;-71
2023/01/22 08:29:16;;;;;;;19.40;15.52;;;1.40;99.90;;;;;;4929954;29;20320;-70
2023/01/22 08:31:43;;;;;;;16.80;14.77;;;1.40;99.90;;;;;;4931010;29;20202;-71
2023/01/22 08:34:11;;;;;;;18.50;15.90;;;1.50;99.90;;;;;;4929046;29;20206;-71
2023/01/22 08:36:38;;;;;;;18.17;15.82;;;1.50;99.90;;;;;;4916060;29;20205;-71
2023/01/22 08:39:05;;;;;;;20.80;16.60;;;1.60;99.90;;;;;;4929297;29;20232;-71
2023/01/22 08:41:32;;;;;;;17.27;15.30;;;1.60;99.90;;;;;;4928039;29;20197;-70
2023/01/22 08:43:59;;;;;;;19.48;16.27;;;1.60;99.90;;;;;;4919711;29;20208;-71
2023/01/22 08:46:26;;;;;;;19.55;15.75;;;1.70;99.90;;;;;;4926796;29;20203;-71
2023/01/22 08:48:53;;;;;;;18.48;15.52;;;1.80;99.90;;;;;;4933614;29;20746;-70
2023/01/22 08:51:23;;;;;;;19.17;16.13;;;1.80;99.90;;;;;;4934303;29;20216;-70
2023/01/22 08:53:50;;;;;;;16.25;13.38;;;1.80;99.90;;;;;;4934537;29;20202;-70
2023/01/22 08:56:17;;;;;;;18.00;15.20;;;1.90;99.90;;;;;;4933429;29;20209;-71
2023/01/22 08:58:47;;;;;;;14.60;13.05;;;2.00;99.90;;;;;;4932048;29;20226;-71
2023/01/22 09:01:16;;;;;;;17.33;14.80;;;2.00;99.90;;;;;;4922574;29;20568;-71
2023/01/22 09:03:43;;;;;;;15.07;13.35;;;2.10;99.90;;;;;;4927416;29;20205;-70
2023/01/22 09:06:10;;;;;;;15.63;14.02;;;2.10;99.90;;;;;;4933728;29;20215;-71
2023/01/22 09:08:38;;;;;;;13.95;12.25;;;2.20;99.90;;;;;;4929865;29;20223;-70
2023/01/22 09:11:06;;;;;;;14.45;12.60;;;2.20;99.90;;;;;;4933358;29;20213;-71
2023/01/22 09:13:33;;;;;;;16.42;14.30;;;2.20;99.90;;;;;;4934181;29;20654;-71
2023/01/22 09:16:00;;;;;;;15.77;13.45;;;2.30;99.90;;;;;;4933579;29;20205;-71
2023/01/22 09:18:27;;;;;;;15.45;13.48;;;2.30;99.90;;;;;;4928874;29;20309;-71
2023/01/22 09:20:54;;;;;;;16.23;13.80;;;2.30;99.90;;;;;;4932215;29;20237;-71
2023/01/22 09:23:21;;;;;;;15.02;13.25;;;2.40;99.90;;;;;;4934030;29;20204;-70
2023/01/22 09:25:49;;;;;;;15.40;13.57;;;2.40;99.90;;;;;;4932514;29;20213;-71
2023/01/22 09:28:16;;;;;;;17.27;13.77;;;2.40;99.90;;;;;;4935073;29;20204;-70
2023/01/22 09:30:43;;;;;;;15.80;14.05;;;2.50;99.90;;;;;;4934391;29;20208;-70
2023/01/22 09:33:10;;;;;;;15.30;12.68;;;2.50;99.90;;;;;;4933460;29;20203;-70
2023/01/22 09:35:37;;;;;;;19.33;14.85;;;2.50;99.90;;;;;;4934186;29;20205;-70
2023/01/22 09:38:05;;;;;;;16.50;14.20;;;2.50;99.90;;;;;;4933665;29;20198;-71
2023/01/22 09:40:38;;;;;;;18.77;15.95;;;2.50;99.90;;;;;;4933218;29;20243;-71
2023/01/22 09:43:23;;;;;;;23.70;14.95;;;2.50;99.90;;;;;;4933191;29;20319;-70
2023/01/22 09:45:53;;;;;;;17.25;14.60;;;2.50;99.90;;;;;;4934266;29;20194;-70
2023/01/22 09:48:22;;;;;;;17.67;15.63;;;2.50;99.90;;;;;;4933638;29;20243;-70
2023/01/22 09:50:49;;;;;;;19.80;13.90;;;2.40;99.90;;;;;;4922015;29;20212;-70
2023/01/22 09:53:19;;;;;;;16.85;13.85;;;2.40;99.90;;;;;;4928919;29;20217;-70
2023/01/22 09:55:49;;;;;;;17.05;14.52;;;2.40;99.90;;;;;;4933605;29;20200;-71
2023/01/22 09:58:21;;;;;;;17.17;14.82;;;2.40;99.90;;;;;;4933720;29;20233;-70
2023/01/22 10:00:51;;;;;;;16.63;14.82;;;2.50;99.90;;;;;;4933052;29;20223;-71
2023/01/22 10:03:23;;;;;;;17.05;15.05;;;2.50;99.90;;;;;;4934120;29;20195;-71
2023/01/22 10:05:55;;;;;;;17.65;15.25;;;2.50;99.90;;;;;;4931891;29;20209;-71
2023/01/22 10:08:25;;;;;;;17.23;14.60;;;2.60;99.90;;;;;;4933030;29;20700;-71
2023/01/22 10:10:52;;;;;;;14.93;12.88;;;2.60;99.90;;;;;;4932804;29;20607;-71
2023/01/22 10:13:22;;;;;;;17.50;14.18;;;2.70;99.90;;;;;;4933580;29;20239;-71
2023/01/22 10:15:51;;;;;;;16.45;13.45;;;2.70;99.90;;;;;;4934969;29;20641;-71
2023/01/22 10:18:28;;;;;;;15.38;13.77;;;2.70;99.90;;;;;;4935567;29;20742;-71
2023/01/22 10:20:57;;;;;;;17.20;13.82;;;2.70;99.90;;;;;;4935799;29;20316;-70
2023/01/22 10:23:26;;;;;;;15.43;13.77;;;2.70;99.90;;;;;;4936797;29;20608;-71
2023/01/22 10:25:59;;;;;;;15.23;13.63;;;2.70;99.90;;;;;;4936840;29;20215;-71
2023/01/22 10:28:28;;;;;;;19.50;15.05;;;2.80;99.90;;;;;;4936557;29;20593;-71
2023/01/22 10:30:57;;;;;;;16.10;13.18;;;2.80;99.90;;;;;;4936284;29;20214;-71
2023/01/22 10:33:27;;;;;;;15.52;13.55;;;2.80;99.90;;;;;;4920089;29;20200;-71
2023/01/22 10:35:56;;;;;;;16.35;14.55;;;2.80;99.90;;;;;;4931279;29;20302;-71
2023/01/22 10:38:27;;;;;;;17.75;15.85;;;2.80;99.90;;;;;;4935484;29;20221;-72
2023/01/22 10:40:57;;;;;;;17.88;16.00;;;2.80;99.90;;;;;;4933720;29;20227;-72
2023/01/22 10:43:32;;;;;;;18.50;15.82;;;2.90;99.90;;;;;;4935907;29;20251;-72
2023/01/22 10:46:06;;;;;;;17.55;15.10;;;3.00;99.90;;;;;;4935743;29;20228;-73
2023/01/22 10:48:33;;;;;;;17.27;15.48;;;3.00;99.90;;;;;;4935375;29;20231;-73
2023/01/22 10:51:07;;;;;;;14.27;12.77;;;3.10;99.90;;;;;;4935669;29;20204;-72
2023/01/22 10:53:38;;;;;;;18.13;15.60;;;3.10;99.90;;;;;;4936386;29;20201;-73
2023/01/22 10:56:09;;;;;;;18.30;16.00;;;3.20;99.90;;;;;;4936594;29;20192;-72
2023/01/22 10:58:40;;;;;;;18.27;16.00;;;3.20;99.90;;;;;;4936182;29;20221;-72
2023/01/22 11:01:28;;;;;;;16.88;15.10;;;3.20;99.90;;;;;;4935027;29;20271;-72
2023/01/22 11:03:55;;;;;;;15.20;13.38;;;3.20;99.90;;;;;;4935689;29;20213;-72
2023/01/22 11:06:27;;;;;;;15.32;13.77;;;3.20;99.90;;;;;;4936004;29;20374;-73
2023/01/22 11:08:59;;;;;;;17.70;13.82;;;3.30;99.90;;;;;;4935863;29;20228;-73
2023/01/22 11:11:32;;;;;;;14.55;13.02;;;3.30;99.90;;;;;;4934787;29;20720;-73
2023/01/22 11:14:10;;;;;;;15.70;14.10;;;3.30;99.90;;;;;;4936450;29;20646;-73
2023/01/22 11:16:40;;;;;;;15.02;13.38;;;3.40;99.90;;;;;;4934799;29;20609;-73
2023/01/22 11:19:13;;;;;;;14.93;13.43;;;3.40;99.90;;;;;;4935637;29;20251;-74
2023/01/22 11:21:45;;;;;;;14.63;13.15;;;3.40;99.90;;;;;;4934534;29;20228;-73
2023/01/22 11:24:14;;;;;;;14.93;13.15;;;3.40;99.90;;;;;;4934943;29;20197;-72
2023/01/22 11:26:56;;;;;;;14.40;12.90;;;3.40;99.90;;;;;;4935047;29;20295;-73
2023/01/22 11:29:43;;;;;;;14.30;12.85;;;3.40;99.90;;;;;;4935929;29;20630;-73
2023/01/22 11:32:40;;;;;;;13.40;12.00;;;3.40;99.90;;;;;;4917378;29;20268;-73
2023/01/22 11:35:18;;;;;;;12.15;10.93;;;3.40;99.90;;;;;;4916740;29;20554;-74
2023/01/22 11:37:58;;;;;;;12.18;10.98;;;3.40;99.90;;;;;;4916749;29;20209;-72
2023/01/22 11:40:29;;;;;;;11.20;10.10;;;3.40;99.90;;;;;;4917121;29;20253;-73
2023/01/22 11:43:17;;;;;;;11.52;10.35;;;3.40;99.90;;;;;;4916671;29;20229;-72
2023/01/22 11:46:01;;;;;;;12.43;11.15;;;3.40;99.90;;;;;;4916519;29;20619;-73
2023/01/22 11:48:50;;;;;;;10.40;9.40;;;3.50;99.90;;;;;;4916627;29;20226;-73
2023/01/22 11:51:23;;;;;;;10.43;9.35;;;3.50;99.90;;;;;;4916305;29;20204;-74
2023/01/22 11:54:04;;;;;;;10.98;9.90;;;3.60;99.90;;;;;;4916853;29;20241;-73
2023/01/22 11:56:49;;;;;;;11.05;10.02;;;3.60;99.90;;;;;;4916110;29;20635;-74
2023/01/22 11:59:28;;;;;;;10.73;9.65;;;3.60;99.90;;;;;;4916343;29;20253;-73
2023/01/22 12:02:19;;;;;;;12.10;10.43;;;3.60;99.90;;;;;;4930654;29;20225;-73
2023/01/22 12:05:15;;;;;;;10.45;9.40;;;3.60;99.90;;;;;;4935249;29;20248;-73
2023/01/22 12:08:11;;;;;;;8.82;7.93;;;3.70;99.90;;;;;;4933511;29;20211;-73
2023/01/22 12:10:53;;;;;;;9.15;8.30;;;3.70;99.90;;;;;;4932671;29;20288;-73
2023/01/22 12:13:32;;;;;;;10.38;9.38;;;3.70;99.90;;;;;;4931720;29;20201;-72
2023/01/22 12:16:08;;;;;;;9.05;8.25;;;3.80;99.90;;;;;;4934991;29;20248;-72
2023/01/22 12:19:03;;;;;;;9.60;8.45;;;3.80;99.90;;;;;;4933106;29;20216;-72
2023/01/22 12:21:43;;;;;;;7.78;7.07;;;3.90;99.90;;;;;;4932643;29;20763;-72
2023/01/22 12:24:18;;;;;;;11.13;9.50;;;3.90;99.90;;;;;;4935119;29;20193;-72
2023/01/22 12:26:50;;;;;;;8.95;8.15;;;4.00;99.90;;;;;;4922006;29;20193;-72
2023/01/22 12:29:23;;;;;;;8.80;8.00;;;4.10;99.90;;;;;;4915636;29;20222;-72
2023/01/22 12:31:56;;;;;;;8.90;8.10;;;4.10;99.90;;;;;;4928693;29;20212;-72
2023/01/22 12:34:29;;;;;;;9.40;8.50;;;4.10;99.90;;;;;;4934788;29;20194;-72
2023/01/22 12:36:57;;;;;;;8.63;7.82;;;4.10;99.90;;;;;;4933564;29;20255;-72
2023/01/22 12:39:28;;;;;;;10.85;9.85;;;4.10;99.90;;;;;;4932435;29;20316;-71
2023/01/22 12:42:08;;;;;;;9.52;8.63;;;4.10;99.90;;;;;;4932096;29;20323;-72
2023/01/22 12:44:48;;;;;;;9.30;8.40;;;4.10;99.90;;;;;;4934506;29;20196;-71
2023/01/22 12:47:21;;;;;;;8.50;7.68;;;4.10;99.90;;;;;;4934604;29;20240;-72
2023/01/22 12:49:51;;;;;;;9.32;8.43;;;4.00;99.90;;;;;;4934504;29;20229;-72
2023/01/22 12:52:31;;;;;;;8.90;8.10;;;4.00;99.90;;;;;;4933409;29;20248;-72
2023/01/22 12:54:59;;;;;;;10.02;9.00;;;3.90;99.90;;;;;;4934368;29;20697;-71
2023/01/22 12:57:36;;;;;;;9.55;8.65;;;3.90;99.90;;;;;;4933779;29;20205;-71
2023/01/22 13:00:13;;;;;;;9.50;8.70;;;3.90;99.90;;;;;;4934411;29;20208;-71
2023/01/22 13:02:40;;;;;;;10.48;9.48;;;3.90;99.90;;;;;;4934234;29;20244;-71